Station Historical Data
Daily Summary for July 12, 2017 Units:  English    Metric   Both
« Previous Day
Next Day »
Daily Weekly Monthly Yearly Custom
  High: Low: Average:
Temperature: 79.0 °F 68.2 °F 73.2 °F
Dew Point: 71.9 °F 65.2 °F 68.7 °F
Humidity: 92% 77% 86%
Wind Speed: 12.0mph 0.0mph 3.2mph
Wind Gust: 17.0mph - -
Wind- - SW
Pressure: 29.97 in 29.87 in -
Precipitation: 0.00 in    
Historical Graphs
 
 
Tabular Data for July 12, 2017
Time Temperature Dew Point Pressure Wind Wind Speed Wind Gust Humidity Rainfall Rate (Hourly)
00:04 70.4 °F 65.7 °F 29.91 in Calm     85% 0.00 in
00:09 70.4 °F 65.7 °F 29.91 in Calm     85% 0.00 in
00:14 70.3 °F 65.6 °F 29.91 in Calm     85% 0.00 in
00:19 70.4 °F 65.7 °F 29.90 in Calm     85% 0.00 in
00:24 70.3 °F 65.6 °F 29.90 in Calm     85% 0.00 in
00:29 70.2 °F 65.8 °F 29.91 in Calm     86% 0.00 in
00:34 70.2 °F 65.8 °F 29.91 in Calm     86% 0.00 in
00:39 70.2 °F 65.8 °F 29.91 in Calm     86% 0.00 in
00:44 70.3 °F 65.9 °F 29.91 in Calm     86% 0.00 in
00:49 70.3 °F 66.2 °F 29.91 in Calm     87% 0.00 in
00:54 70.5 °F 66.4 °F 29.91 in Calm     87% 0.00 in
00:59 70.5 °F 66.4 °F 29.92 in Calm     87% 0.00 in
01:04 70.5 °F 66.4 °F 29.92 in Calm     87% 0.00 in
01:09 70.4 °F 66.3 °F 29.92 in Calm     87% 0.00 in
01:14 70.4 °F 66.3 °F 29.92 in Calm     87% 0.00 in
01:19 70.2 °F 66.1 °F 29.92 in Calm     87% 0.00 in
01:24 70.0 °F 66.0 °F 29.91 in Calm     87% 0.00 in
01:29 69.9 °F 65.9 °F 29.92 in Calm     87% 0.00 in
01:34 69.9 °F 65.9 °F 29.92 in Calm     87% 0.00 in
01:39 69.9 °F 65.9 °F 29.92 in Calm     87% 0.00 in
01:44 69.8 °F 65.8 °F 29.92 in Calm     87% 0.00 in
01:49 69.7 °F 65.7 °F 29.92 in Calm     87% 0.00 in
01:54 69.4 °F 65.4 °F 29.92 in Calm     87% 0.00 in
01:59 69.2 °F 65.2 °F 29.92 in Calm     87% 0.00 in
02:04 69.1 °F 65.4 °F 29.92 in Calm     88% 0.00 in
02:09 69.1 °F 65.4 °F 29.91 in Calm     88% 0.00 in
02:14 69.2 °F 65.5 °F 29.91 in Calm     88% 0.00 in
02:19 69.2 °F 65.5 °F 29.91 in Calm     88% 0.00 in
02:24 69.2 °F 65.5 °F 29.91 in Calm     88% 0.00 in
02:29 69.1 °F 65.4 °F 29.91 in Calm     88% 0.00 in
02:34 69.0 °F 65.3 °F 29.91 in Calm     88% 0.00 in
02:39 68.9 °F 65.5 °F 29.90 in Calm     89% 0.00 in
02:44 69.0 °F 65.6 °F 29.91 in Calm     89% 0.00 in
02:49 69.0 °F 65.6 °F 29.91 in Calm     89% 0.00 in
02:54 69.0 °F 65.6 °F 29.91 in Calm     89% 0.00 in
02:59 69.1 °F 65.7 °F 29.91 in Calm     89% 0.00 in
03:04 69.1 °F 65.7 °F 29.91 in Calm     89% 0.00 in
03:09 69.0 °F 65.6 °F 29.90 in Calm     89% 0.00 in
03:14 69.0 °F 65.6 °F 29.90 in Calm     89% 0.00 in
03:19 68.9 °F 65.5 °F 29.91 in Calm     89% 0.00 in
03:24 68.9 °F 65.8 °F 29.90 in Calm     90% 0.00 in
03:29 68.7 °F 65.6 °F 29.91 in Calm     90% 0.00 in
03:34 68.6 °F 65.5 °F 29.91 in Calm     90% 0.00 in
03:39 68.6 °F 65.5 °F 29.91 in Calm     90% 0.00 in
03:44 68.3 °F 65.3 °F 29.92 in Calm     90% 0.00 in
03:49 68.2 °F 65.2 °F 29.92 in Calm     90% 0.00 in
03:54 68.2 °F 65.2 °F 29.92 in Calm     90% 0.00 in
03:59 68.2 °F 65.5 °F 29.92 in Calm     91% 0.00 in
04:04 68.3 °F 65.6 °F 29.92 in Calm     91% 0.00 in
04:09 68.4 °F 65.7 °F 29.92 in Calm     91% 0.00 in
04:14 68.5 °F 65.8 °F 29.92 in Calm     91% 0.00 in
04:19 68.7 °F 66.0 °F 29.92 in Calm     91% 0.00 in
04:24 68.8 °F 66.1 °F 29.92 in Calm     91% 0.00 in
04:29 68.8 °F 66.1 °F 29.91 in Calm     91% 0.00 in
04:34 68.8 °F 66.1 °F 29.91 in Calm     91% 0.00 in
04:39 68.8 °F 66.1 °F 29.91 in Calm     91% 0.00 in
04:44 68.8 °F 66.1 °F 29.91 in Calm     91% 0.00 in
04:49 68.8 °F 66.1 °F 29.91 in Calm     91% 0.00 in
04:54 69.0 °F 66.3 °F 29.91 in Calm     91% 0.00 in
04:59 69.0 °F 66.3 °F 29.91 in Calm     91% 0.00 in
05:04 69.2 °F 66.5 °F 29.91 in Calm     91% 0.00 in
05:09 69.2 °F 66.5 °F 29.92 in Calm     91% 0.00 in
05:14 69.1 °F 66.4 °F 29.92 in Calm     91% 0.00 in
05:19 69.0 °F 66.3 °F 29.92 in Calm     91% 0.00 in
05:24 68.9 °F 66.2 °F 29.92 in Calm     91% 0.00 in
05:29 68.9 °F 66.2 °F 29.93 in Calm     91% 0.00 in
05:34 68.8 °F 66.1 °F 29.93 in Calm     91% 0.00 in
05:39 68.8 °F 66.1 °F 29.93 in Calm     91% 0.00 in
05:44 69.0 °F 66.3 °F 29.92 in Calm     91% 0.00 in
05:49 69.2 °F 66.5 °F 29.92 in Calm     91% 0.00 in
05:54 69.3 °F 66.6 °F 29.92 in Calm     91% 0.00 in
05:59 69.6 °F 66.9 °F 29.93 in Calm     91% 0.00 in
06:04 70.1 °F 67.3 °F 29.93 in Calm     91% 0.00 in
06:09 70.3 °F 67.5 °F 29.93 in Calm     91% 0.00 in
06:14 70.8 °F 68.0 °F 29.93 in SSW 1.0 mph 3.0 mph 91% 0.00 in
06:19 71.5 °F 68.7 °F 29.93 in SW 1.0 mph 7.0 mph 91% 0.00 in
06:24 72.2 °F 69.4 °F 29.93 in SW 3.0 mph 8.0 mph 91% 0.00 in
06:29 72.6 °F 69.8 °F 29.93 in SW 3.0 mph 8.0 mph 91% 0.00 in
06:34 72.8 °F 70.0 °F 29.94 in WSW 3.0 mph 8.0 mph 91% 0.00 in
06:39 72.9 °F 69.8 °F 29.94 in WSW 3.0 mph 8.0 mph 90% 0.00 in
06:44 73.0 °F 69.9 °F 29.94 in WSW 3.0 mph 7.0 mph 90% 0.00 in
06:49 73.0 °F 69.6 °F 29.94 in WSW 5.0 mph 8.0 mph 89% 0.00 in
06:54 73.0 °F 69.6 °F 29.94 in West 2.0 mph 7.0 mph 89% 0.00 in
06:59 73.1 °F 69.7 °F 29.93 in SW 3.0 mph 10.0 mph 89% 0.00 in
07:04 73.1 °F 69.7 °F 29.93 in WSW 8.0 mph 9.0 mph 89% 0.00 in
07:09 73.1 °F 69.7 °F 29.93 in WSW 3.0 mph 8.0 mph 89% 0.00 in
07:14 73.1 °F 69.7 °F 29.93 in West 1.0 mph 5.0 mph 89% 0.00 in
07:19 73.1 °F 69.7 °F 29.93 in Calm   4.0 mph 89% 0.00 in
07:24 73.2 °F 69.8 °F 29.93 in WSW 1.0 mph 4.0 mph 89% 0.00 in
07:29 73.1 °F 69.7 °F 29.93 in SW 2.0 mph 5.0 mph 89% 0.00 in
07:34 73.0 °F 69.6 °F 29.93 in SW 3.0 mph 11.0 mph 89% 0.00 in
07:39 73.0 °F 69.6 °F 29.93 in SW 5.0 mph 11.0 mph 89% 0.00 in
07:44 73.0 °F 69.2 °F 29.93 in West 4.0 mph 7.0 mph 88% 0.00 in
07:49 72.8 °F 69.0 °F 29.94 in WSW 4.0 mph 9.0 mph 88% 0.00 in
07:54 72.7 °F 69.3 °F 29.94 in WSW 4.0 mph 9.0 mph 89% 0.00 in
07:59 72.5 °F 69.4 °F 29.94 in West 5.0 mph 7.0 mph 90% 0.00 in
08:04 72.4 °F 69.3 °F 29.93 in West 5.0 mph 8.0 mph 90% 0.01 in
08:09 72.1 °F 69.0 °F 29.94 in West 6.0 mph 9.0 mph 90% 0.04 in
08:14 71.9 °F 68.8 °F 29.94 in SW 5.0 mph 12.0 mph 90% 0.09 in
08:19 71.7 °F 68.9 °F 29.94 in WSW 4.0 mph 12.0 mph 91% 0.15 in
08:24 71.7 °F 68.9 °F 29.95 in West 4.0 mph 8.0 mph 91% 0.20 in
08:29 71.6 °F 68.8 °F 29.95 in SW 8.0 mph 13.0 mph 91% 0.21 in
08:34 71.2 °F 68.4 °F 29.95 in SW 8.0 mph 14.0 mph 91% 0.22 in
08:39 71.1 °F 68.7 °F 29.95 in WSW 3.0 mph 11.0 mph 92% 0.22 in
08:44 71.1 °F 68.7 °F 29.96 in SW 4.0 mph 9.0 mph 92% 0.22 in
08:49 71.2 °F 68.8 °F 29.95 in WSW 6.0 mph 9.0 mph 92% 0.22 in
08:54 71.2 °F 68.8 °F 29.95 in WSW 5.0 mph 9.0 mph 92% 0.22 in
08:59 71.2 °F 68.8 °F 29.95 in WSW 4.0 mph 9.0 mph 92% 0.22 in
09:04 71.2 °F 68.8 °F 29.96 in SW 4.0 mph 9.0 mph 92% 0.21 in
09:09 71.0 °F 68.6 °F 29.96 in WSW 5.0 mph 12.0 mph 92% 0.19 in
09:14 70.9 °F 68.5 °F 29.96 in WSW 6.0 mph 12.0 mph 92% 0.14 in
09:19 70.8 °F 68.4 °F 29.96 in WSW 3.0 mph 8.0 mph 92% 0.08 in
09:24 70.9 °F 68.5 °F 29.96 in West 3.0 mph 6.0 mph 92% 0.03 in
09:29 70.8 °F 68.4 °F 29.97 in SW 12.0 mph 12.0 mph 92% 0.02 in
09:34 70.5 °F 68.1 °F 29.97 in SSW 8.0 mph 12.0 mph 92% 0.01 in
09:39 70.5 °F 68.1 °F 29.97 in SW 4.0 mph 8.0 mph 92% 0.01 in
09:44 70.6 °F 68.2 °F 29.97 in WSW 6.0 mph 6.0 mph 92% 0.01 in
09:49 70.8 °F 68.4 °F 29.97 in SW 2.0 mph 7.0 mph 92% 0.01 in
09:54 70.9 °F 68.5 °F 29.97 in SW 3.0 mph 7.0 mph 92% 0.01 in
09:59 71.1 °F 68.7 °F 29.97 in SW 3.0 mph 6.0 mph 92% 0.01 in
10:04 71.0 °F 68.6 °F 29.97 in SW 4.0 mph 8.0 mph 92% 0.01 in
10:09 71.0 °F 68.6 °F 29.97 in SW 4.0 mph 9.0 mph 92% 0.00 in
10:14 71.0 °F 68.6 °F 29.97 in SSW 3.0 mph 8.0 mph 92% 0.00 in
10:19 71.1 °F 68.7 °F 29.97 in SW 3.0 mph 8.0 mph 92% 0.01 in
10:24 71.1 °F 68.7 °F 29.97 in SW 3.0 mph 7.0 mph 92% 0.02 in
10:29 71.1 °F 68.7 °F 29.96 in WSW 2.0 mph 5.0 mph 92% 0.02 in
10:34 71.5 °F 69.1 °F 29.95 in SW 2.0 mph 8.0 mph 92% 0.02 in
10:39 71.9 °F 69.4 °F 29.95 in SSW 3.0 mph 4.0 mph 92% 0.02 in
10:44 72.8 °F 70.3 °F 29.95 in SSW 1.0 mph 5.0 mph 92% 0.02 in
10:49 73.9 °F 71.1 °F 29.95 in SSW 2.0 mph 5.0 mph 91% 0.02 in
10:54 74.4 °F 71.3 °F 29.95 in SSW 2.0 mph 8.0 mph 90% 0.02 in
10:59 74.1 °F 70.6 °F 29.95 in SW 3.0 mph 8.0 mph 89% 0.02 in
11:04 73.9 °F 70.1 °F 29.95 in SW 4.0 mph 9.0 mph 88% 0.02 in
11:09 73.5 °F 69.4 °F 29.95 in SW 5.0 mph 9.0 mph 87% 0.02 in
11:14 73.9 °F 69.8 °F 29.95 in SW 5.0 mph 11.0 mph 87% 0.01 in
11:19 74.2 °F 69.7 °F 29.95 in SW 5.0 mph 11.0 mph 86% 0.01 in
11:24 74.2 °F 69.4 °F 29.95 in SW 5.0 mph 11.0 mph 85% 0.00 in
11:29 73.9 °F 69.1 °F 29.96 in WNW 7.0 mph 13.0 mph 85% 0.00 in
11:34 74.3 °F 69.5 °F 29.96 in WSW 1.0 mph 11.0 mph 85% 0.00 in
11:39 74.7 °F 69.5 °F 29.96 in SW 10.0 mph 10.0 mph 84% 0.00 in
11:44 75.0 °F 69.8 °F 29.96 in West 5.0 mph 10.0 mph 84% 0.00 in
11:49 76.1 °F 70.2 °F 29.96 in WSW 5.0 mph 10.0 mph 82% 0.00 in
11:54 77.4 °F 71.1 °F 29.96 in WSW 5.0 mph 9.0 mph 81% 0.00 in
11:59 77.3 °F 70.3 °F 29.96 in WSW 5.0 mph 12.0 mph 79% 0.00 in
12:04 77.5 °F 70.1 °F 29.96 in SW 8.0 mph 13.0 mph 78% 0.00 in
12:09 77.1 °F 70.5 °F 29.96 in WSW 5.0 mph 16.0 mph 80% 0.00 in
12:14 76.8 °F 69.8 °F 29.97 in SW 3.0 mph 13.0 mph 79% 0.00 in
12:19 77.8 °F 71.1 °F 29.96 in WSW 6.0 mph 13.0 mph 80% 0.00 in
12:24 78.2 °F 71.2 °F 29.95 in WSW 5.0 mph 11.0 mph 79% 0.00 in
12:29 79.0 °F 71.9 °F 29.95 in SW 5.0 mph 11.0 mph 79% 0.00 in
12:34 78.5 °F 70.7 °F 29.95 in SW 6.0 mph 14.0 mph 77% 0.00 in
12:39 77.2 °F 70.2 °F 29.95 in WSW 7.0 mph 12.0 mph 79% 0.00 in
12:44 76.6 °F 70.0 °F 29.95 in WSW 7.0 mph 14.0 mph 80% 0.00 in
12:49 77.2 °F 70.5 °F 29.95 in SW 8.0 mph 13.0 mph 80% 0.00 in
12:54 77.3 °F 70.6 °F 29.95 in SW 6.0 mph 13.0 mph 80% 0.00 in
12:59 77.5 °F 70.8 °F 29.95 in WSW 6.0 mph 12.0 mph 80% 0.00 in
13:04 78.0 °F 71.0 °F 29.95 in WSW 5.0 mph 9.0 mph 79% 0.00 in
13:09 78.3 °F 71.2 °F 29.95 in WNW 6.0 mph 8.0 mph 79% 0.00 in
13:14 78.0 °F 71.0 °F 29.94 in SW 4.0 mph 9.0 mph 79% 0.00 in
13:19 77.2 °F 70.5 °F 29.94 in WSW 5.0 mph 9.0 mph 80% 0.00 in
13:24 76.5 °F 70.2 °F 29.94 in WSW 5.0 mph 10.0 mph 81% 0.00 in
13:29 76.2 °F 70.7 °F 29.95 in SW 6.0 mph 10.0 mph 83% 0.00 in
13:34 76.6 °F 70.7 °F 29.95 in WSW 5.0 mph 10.0 mph 82% 0.00 in
13:39 76.9 °F 70.6 °F 29.95 in WSW 6.0 mph 7.0 mph 81% 0.00 in
13:44 76.7 °F 70.4 °F 29.95 in WSW 6.0 mph 12.0 mph 81% 0.00 in
13:49 76.1 °F 70.2 °F 29.95 in WSW 9.0 mph 13.0 mph 82% 0.00 in
13:54 75.6 °F 70.1 °F 29.95 in WSW 6.0 mph 13.0 mph 83% 0.00 in
13:59 75.4 °F 70.2 °F 29.95 in SW 6.0 mph 12.0 mph 84% 0.00 in
14:04 75.7 °F 70.2 °F 29.94 in West 8.0 mph 13.0 mph 83% 0.00 in
14:09 75.6 °F 70.1 °F 29.94 in SW 6.0 mph 14.0 mph 83% 0.00 in
14:14 75.8 °F 70.3 °F 29.94 in WNW 6.0 mph 11.0 mph 83% 0.00 in
14:19 76.0 °F 70.5 °F 29.95 in WSW 9.0 mph 13.0 mph 83% 0.00 in
14:24 75.6 °F 70.1 °F 29.95 in WSW 5.0 mph 13.0 mph 83% 0.00 in
14:29 75.2 °F 69.7 °F 29.95 in WSW 7.0 mph 13.0 mph 83% 0.00 in
14:34 75.0 °F 69.5 °F 29.95 in SW 7.0 mph 17.0 mph 83% 0.00 in
14:39 74.8 °F 69.6 °F 29.96 in SW 8.0 mph 17.0 mph 84% 0.00 in
14:44 75.0 °F 69.5 °F 29.96 in WSW 7.0 mph 14.0 mph 83% 0.00 in
14:49 74.9 °F 69.4 °F 29.96 in WSW 6.0 mph 15.0 mph 83% 0.00 in
14:54 74.7 °F 69.2 °F 29.96 in SSW 7.0 mph 15.0 mph 83% 0.00 in
14:59 74.5 °F 69.3 °F 29.96 in SW 8.0 mph 15.0 mph 84% 0.00 in
15:04 74.3 °F 69.1 °F 29.96 in West 4.0 mph 14.0 mph 84% 0.00 in
15:09 74.3 °F 69.1 °F 29.96 in SSW 7.0 mph 13.0 mph 84% 0.00 in
15:14 74.5 °F 69.3 °F 29.96 in WSW 6.0 mph 13.0 mph 84% 0.00 in
15:19 74.7 °F 69.5 °F 29.95 in WSW 7.0 mph 14.0 mph 84% 0.00 in
15:24 75.1 °F 69.6 °F 29.96 in SW 6.0 mph 13.0 mph 83% 0.00 in
15:29 74.8 °F 69.3 °F 29.95 in WSW 6.0 mph 17.0 mph 83% 0.00 in
15:34 74.7 °F 69.5 °F 29.95 in WSW 6.0 mph 17.0 mph 84% 0.00 in
15:39 74.9 °F 69.7 °F 29.95 in WSW 6.0 mph 11.0 mph 84% 0.00 in
15:44 74.7 °F 69.2 °F 29.95 in WSW 6.0 mph 16.0 mph 83% 0.00 in
15:49 74.7 °F 69.5 °F 29.95 in WSW 6.0 mph 16.0 mph 84% 0.00 in
15:54 74.6 °F 69.1 °F 29.95 in SW 6.0 mph 12.0 mph 83% 0.00 in
15:59 74.5 °F 69.3 °F 29.95 in WSW 6.0 mph 12.0 mph 84% 0.00 in
16:04 74.5 °F 69.3 °F 29.94 in SW 10.0 mph 12.0 mph 84% 0.00 in
16:09 74.6 °F 69.4 °F 29.94 in SW 3.0 mph 10.0 mph 84% 0.00 in
16:14 74.8 °F 69.6 °F 29.94 in WSW 7.0 mph 10.0 mph 84% 0.00 in
16:19 75.0 °F 69.5 °F 29.94 in WSW 3.0 mph 9.0 mph 83% 0.00 in
16:24 75.1 °F 69.9 °F 29.93 in SSW 4.0 mph 10.0 mph 84% 0.00 in
16:29 75.5 °F 70.0 °F 29.94 in WSW 5.0 mph 6.0 mph 83% 0.00 in
16:34 75.3 °F 69.4 °F 29.94 in SSW 9.0 mph 12.0 mph 82% 0.00 in
16:39 75.1 °F 69.6 °F 29.94 in South 2.0 mph 11.0 mph 83% 0.00 in
16:44 74.9 °F 69.4 °F 29.94 in WSW 6.0 mph 14.0 mph 83% 0.00 in
16:49 74.8 °F 69.6 °F 29.94 in SW 5.0 mph 10.0 mph 84% 0.00 in
16:54 74.9 °F 69.7 °F 29.94 in SW 7.0 mph 9.0 mph 84% 0.00 in
16:59 75.1 °F 69.6 °F 29.93 in SSW 4.0 mph 8.0 mph 83% 0.00 in
17:04 75.3 °F 69.8 °F 29.93 in SW 4.0 mph 10.0 mph 83% 0.00 in
17:09 75.6 °F 70.1 °F 29.93 in SW 5.0 mph 10.0 mph 83% 0.00 in
17:14 75.7 °F 69.8 °F 29.94 in SW 5.0 mph 10.0 mph 82% 0.00 in
17:19 75.9 °F 69.6 °F 29.94 in West 6.0 mph 14.0 mph 81% 0.00 in
17:24 76.0 °F 69.4 °F 29.94 in SW 4.0 mph 13.0 mph 80% 0.00 in
17:29 76.1 °F 69.5 °F 29.94 in West 8.0 mph 11.0 mph 80% 0.00 in
17:34 76.0 °F 69.7 °F 29.94 in WSW 5.0 mph 11.0 mph 81% 0.00 in
17:39 76.0 °F 69.7 °F 29.94 in WSW 5.0 mph 10.0 mph 81% 0.00 in
17:44 76.1 °F 69.8 °F 29.94 in SW 5.0 mph 12.0 mph 81% 0.00 in
17:49 76.0 °F 69.7 °F 29.94 in SW 4.0 mph 10.0 mph 81% 0.00 in
17:54 75.8 °F 69.6 °F 29.94 in SW 11.0 mph 16.0 mph 81% 0.00 in
17:59 75.9 °F 70.0 °F 29.94 in WSW 3.0 mph 12.0 mph 82% 0.00 in
18:04 75.8 °F 69.9 °F 29.93 in South 5.0 mph 11.0 mph 82% 0.00 in
18:09 75.7 °F 69.8 °F 29.93 in SW 5.0 mph 12.0 mph 82% 0.00 in
18:14 75.8 °F 70.3 °F 29.93 in SW 5.0 mph 12.0 mph 83% 0.00 in
18:19 75.9 °F 70.4 °F 29.93 in SW 4.0 mph 10.0 mph 83% 0.00 in
18:24 75.7 °F 69.8 °F 29.93 in SSE 2.0 mph 11.0 mph 82% 0.00 in
18:29 75.7 °F 70.2 °F 29.93 in WSW 4.0 mph 12.0 mph 83% 0.00 in
18:34 75.6 °F 70.1 °F 29.92 in SW 4.0 mph 10.0 mph 83% 0.00 in
18:39 75.6 °F 70.1 °F 29.91 in SW 4.0 mph 10.0 mph 83% 0.00 in
18:44 75.5 °F 70.0 °F 29.92 in SSW 4.0 mph 7.0 mph 83% 0.00 in
18:49 75.6 °F 70.1 °F 29.93 in SW 2.0 mph 9.0 mph 83% 0.00 in
18:54 75.7 °F 70.2 °F 29.93 in SW 4.0 mph 10.0 mph 83% 0.00 in
18:59 75.7 °F 70.2 °F 29.93 in South 2.0 mph 11.0 mph 83% 0.00 in
19:04 75.9 °F 70.0 °F 29.92 in South 5.0 mph 8.0 mph 82% 0.00 in
19:09 76.0 °F 70.1 °F 29.92 in SSW 3.0 mph 7.0 mph 82% 0.00 in
19:14 76.0 °F 70.1 °F 29.92 in SW 4.0 mph 9.0 mph 82% 0.00 in
19:19 76.0 °F 70.1 °F 29.92 in SW 4.0 mph 9.0 mph 82% 0.00 in
19:24 76.0 °F 70.1 °F 29.92 in SW 4.0 mph 9.0 mph 82% 0.00 in
19:29 76.0 °F 70.1 °F 29.93 in SW 4.0 mph 8.0 mph 82% 0.00 in
19:34 76.0 °F 70.1 °F 29.93 in SW 5.0 mph 7.0 mph 82% 0.00 in
19:39 76.1 °F 70.2 °F 29.92 in SW 5.0 mph 8.0 mph 82% 0.00 in
19:44 76.0 °F 70.1 °F 29.92 in SSW 4.0 mph 8.0 mph 82% 0.00 in
19:49 76.0 °F 70.1 °F 29.92 in SW 5.0 mph 7.0 mph 82% 0.00 in
19:54 76.0 °F 70.1 °F 29.92 in WSW 7.0 mph 7.0 mph 82% 0.00 in
19:59 76.0 °F 70.1 °F 29.92 in West 3.0 mph 7.0 mph 82% 0.00 in
20:04 76.1 °F 70.2 °F 29.92 in SW 5.0 mph 7.0 mph 82% 0.00 in
20:09 76.1 °F 69.8 °F 29.92 in SW 3.0 mph 8.0 mph 81% 0.00 in
20:14 76.1 °F 69.8 °F 29.92 in SW 4.0 mph 8.0 mph 81% 0.00 in
20:19 76.2 °F 69.9 °F 29.92 in SW 4.0 mph 9.0 mph 81% 0.00 in
20:24 76.2 °F 69.9 °F 29.92 in SW 4.0 mph 9.0 mph 81% 0.00 in
20:29 76.4 °F 69.8 °F 29.92 in SW 4.0 mph 10.0 mph 80% 0.00 in
20:34 76.3 °F 69.7 °F 29.92 in SW 4.0 mph 8.0 mph 80% 0.00 in
20:39 76.3 °F 69.7 °F 29.92 in SW 3.0 mph 8.0 mph 80% 0.00 in
20:44 76.2 °F 69.6 °F 29.92 in SW 4.0 mph 8.0 mph 80% 0.00 in
20:49 76.2 °F 69.6 °F 29.92 in SW 4.0 mph 8.0 mph 80% 0.00 in
20:54 76.1 °F 69.5 °F 29.91 in Calm   5.0 mph 80% 0.00 in
20:59 75.9 °F 69.3 °F 29.91 in SSW 2.0 mph 5.0 mph 80% 0.00 in
21:04 75.9 °F 69.6 °F 29.91 in SSW 2.0 mph 3.0 mph 81% 0.00 in
21:09 75.9 °F 69.6 °F 29.91 in SW 1.0 mph 4.0 mph 81% 0.00 in
21:14 75.9 °F 69.6 °F 29.91 in SSW 1.0 mph 4.0 mph 81% 0.00 in
21:19 75.9 °F 69.6 °F 29.91 in SW 1.0 mph 2.0 mph 81% 0.00 in
21:24 75.8 °F 69.6 °F 29.91 in Calm   1.0 mph 81% 0.00 in
21:29 75.8 °F 69.6 °F 29.92 in Calm     81% 0.00 in
21:34 75.8 °F 69.6 °F 29.91 in Calm     81% 0.00 in
21:39 75.8 °F 69.6 °F 29.91 in Calm     81% 0.00 in
21:44 75.7 °F 69.5 °F 29.91 in Calm     81% 0.00 in
21:49 75.7 °F 69.5 °F 29.91 in Calm     81% 0.00 in
21:54 75.7 °F 69.5 °F 29.91 in SSE 2.0 mph 2.0 mph 81% 0.00 in
21:59 75.8 °F 69.6 °F 29.91 in SSE 3.0 mph 4.0 mph 81% 0.00 in
22:04 76.0 °F 69.7 °F 29.91 in SSW 4.0 mph 5.0 mph 81% 0.00 in
22:09 76.0 °F 70.1 °F 29.90 in Calm   6.0 mph 82% 0.01 in
22:14 75.7 °F 70.5 °F 29.90 in South 3.0 mph 5.0 mph 84% 0.01 in
22:19 75.3 °F 70.1 °F 29.90 in South 2.0 mph 5.0 mph 84% 0.01 in
22:24 75.0 °F 69.8 °F 29.90 in South 2.0 mph 5.0 mph 84% 0.01 in
22:29 74.9 °F 69.7 °F 29.90 in SSW 2.0 mph 5.0 mph 84% 0.01 in
22:34 74.7 °F 69.5 °F 29.90 in South 1.0 mph 4.0 mph 84% 0.01 in
22:39 74.6 °F 69.1 °F 29.90 in Calm   4.0 mph 83% 0.01 in
22:44 74.5 °F 69.3 °F 29.89 in South 2.0 mph 3.0 mph 84% 0.01 in
22:49 74.7 °F 69.2 °F 29.89 in South 1.0 mph 3.0 mph 83% 0.01 in
22:54 74.8 °F 69.3 °F 29.90 in SSW 2.0 mph 7.0 mph 83% 0.03 in
22:59 74.3 °F 69.1 °F 29.89 in SW 2.0 mph 3.0 mph 84% 0.11 in
23:04 73.7 °F 69.2 °F 29.87 in SSE 1.0 mph 3.0 mph 86% 0.17 in
23:09 73.2 °F 69.4 °F 29.87 in SSW 4.0 mph 6.0 mph 88% 0.18 in
23:14 73.1 °F 69.3 °F 29.88 in NW 2.0 mph 6.0 mph 88% 0.19 in
23:19 73.0 °F 69.6 °F 29.89 in NW 3.0 mph 8.0 mph 89% 0.20 in
23:24 72.9 °F 69.5 °F 29.88 in NNW 3.0 mph 8.0 mph 89% 0.20 in
23:29 73.0 °F 69.9 °F 29.88 in West 2.0 mph 4.0 mph 90% 0.20 in
23:34 73.2 °F 70.1 °F 29.89 in WSW 5.0 mph 8.0 mph 90% 0.20 in
23:39 73.8 °F 70.7 °F 29.89 in West 3.0 mph 12.0 mph 90% 0.20 in
23:44 73.8 °F 70.4 °F 29.90 in West 1.0 mph 6.0 mph 89% 0.20 in
23:49 74.0 °F 70.9 °F 29.90 in West 3.0 mph 6.0 mph 90% 0.20 in
23:54 74.4 °F 70.9 °F 29.90 in West 3.0 mph 7.0 mph 89% 0.18 in
23:59 74.6 °F 71.1 °F 29.90 in WSW 4.0 mph 8.0 mph 89% 0.10 in
Buffalo, New York, USA
Compliments of Weather Underground - 2.5 mb